createdAt,value
2019-03-22T00:02:37.257Z,38.70
2019-03-22T00:06:40.799Z,38.05
2019-03-22T00:10:46.870Z,38.13
2019-03-22T00:14:50.672Z,39.35
2019-03-22T00:18:54.238Z,38.85
2019-03-22T00:22:58.710Z,38.15
2019-03-22T00:27:02.628Z,38.67
2019-03-22T00:31:06.348Z,37.95
2019-03-22T00:35:11.104Z,39.23
2019-03-22T00:39:14.814Z,39.08
2019-03-22T00:43:18.422Z,39.18
2019-03-22T00:47:23.057Z,39.40
2019-03-22T00:51:26.724Z,38.17
2019-03-22T00:55:30.386Z,37.70
2019-03-22T00:59:34.006Z,39.25
2019-03-22T01:03:37.560Z,37.98
2019-03-22T01:07:41.228Z,37.98
2019-03-22T01:11:44.842Z,40.50
2019-03-22T01:15:48.459Z,39.18
2019-03-22T01:19:52.071Z,40.12
2019-03-22T01:23:55.863Z,40.00
2019-03-22T01:27:59.505Z,39.05
2019-03-22T01:32:03.043Z,39.45
2019-03-22T01:36:06.732Z,37.23
2019-03-22T01:40:12.092Z,39.40
2019-03-22T01:44:15.702Z,37.48
2019-03-22T01:48:19.452Z,37.10
2019-03-22T01:52:23.136Z,38.85
2019-03-22T01:56:26.770Z,39.00
2019-03-22T02:00:30.767Z,38.17
2019-03-22T02:04:34.358Z,38.87
2019-03-22T02:08:38.203Z,36.95
2019-03-22T02:12:41.923Z,37.98
2019-03-22T02:16:45.636Z,37.28
2019-03-22T02:20:49.177Z,38.83
2019-03-22T02:24:52.892Z,39.13
2019-03-22T02:28:56.481Z,37.73
2019-03-22T02:33:00.091Z,39.10
2019-03-22T02:37:04.932Z,37.17
2019-03-22T02:41:08.587Z,36.93
2019-03-22T02:45:14.327Z,37.75
2019-03-22T02:49:17.924Z,39.38
2019-03-22T02:53:21.650Z,38.80
2019-03-22T02:57:25.471Z,37.88
2019-03-22T03:01:29.281Z,38.05
2019-03-22T03:05:33.002Z,36.63
2019-03-22T03:09:36.610Z,35.65
2019-03-22T03:13:40.511Z,34.92
2019-03-22T03:17:44.066Z,35.63
2019-03-22T03:21:47.770Z,34.67
2019-03-22T03:25:51.372Z,34.27
2019-03-22T03:29:55.343Z,33.18
2019-03-22T03:33:58.918Z,35.90
2019-03-22T03:38:02.629Z,34.73
2019-03-22T03:42:06.446Z,36.13
2019-03-22T03:46:10.164Z,34.50
2019-03-22T03:50:13.880Z,35.10
2019-03-22T03:54:17.430Z,33.88
2019-03-22T03:58:21.107Z,33.60
2019-03-22T04:02:25.172Z,33.42
2019-03-22T04:06:28.740Z,35.20
2019-03-22T04:10:32.738Z,37.85
2019-03-22T04:14:36.380Z,34.73
2019-03-22T04:18:40.005Z,35.43
2019-03-22T04:22:43.766Z,36.73
2019-03-22T04:26:47.396Z,37.60
2019-03-22T04:30:51.038Z,37.63
2019-03-22T04:34:54.652Z,37.83
2019-03-22T04:38:58.263Z,36.77
2019-03-22T04:43:01.885Z,37.00
2019-03-22T04:47:07.673Z,36.83
2019-03-22T04:51:12.177Z,37.20
2019-03-22T04:55:16.683Z,37.08
2019-03-22T04:59:21.423Z,37.30
2019-03-22T05:03:29.494Z,40.23
2019-03-22T05:07:33.581Z,38.70
2019-03-22T05:11:38.310Z,39.42
2019-03-22T05:15:43.182Z,39.75
2019-03-22T05:19:49.874Z,39.33
2019-03-22T05:23:56.738Z,40.20
2019-03-22T05:28:02.614Z,40.55
2019-03-22T05:32:08.038Z,40.10
2019-03-22T05:36:11.588Z,40.83
2019-03-22T05:40:16.231Z,40.34
2019-03-22T05:44:19.841Z,39.50
2019-03-22T05:48:24.073Z,42.27
2019-03-22T05:52:27.785Z,40.17
2019-03-22T05:56:31.623Z,41.10
2019-03-22T06:00:35.527Z,42.55
2019-03-22T06:04:39.151Z,38.58
2019-03-22T06:08:42.861Z,41.83
2019-03-22T06:12:46.469Z,39.92
2019-03-22T06:16:50.190Z,42.55
2019-03-22T06:20:53.801Z,40.83
2019-03-22T06:24:57.588Z,41.37
2019-03-22T06:29:01.243Z,40.43
2019-03-22T06:33:04.965Z,43.08
2019-03-22T06:37:08.676Z,42.27
2019-03-22T06:41:12.314Z,43.68
2019-03-22T06:45:15.897Z,41.55
2019-03-22T06:49:19.614Z,43.02
2019-03-22T06:53:23.227Z,41.25
2019-03-22T06:57:26.838Z,43.33
2019-03-22T07:01:30.672Z,40.08
2019-03-22T07:05:35.300Z,38.95
2019-03-22T07:09:38.857Z,39.42
2019-03-22T07:13:42.624Z,38.53
2019-03-22T07:17:46.239Z,39.85
2019-03-22T07:21:49.854Z,38.67
2019-03-22T07:25:53.469Z,40.23
2019-03-22T07:29:57.393Z,39.42
2019-03-22T07:34:01.005Z,41.85
2019-03-22T07:38:04.703Z,37.78
2019-03-22T07:42:08.333Z,35.80
2019-03-22T07:46:11.948Z,36.68
2019-03-22T07:50:15.663Z,38.28
2019-03-22T07:54:19.490Z,36.98
2019-03-22T07:58:23.537Z,35.98
2019-03-22T08:02:27.228Z,36.00
2019-03-22T08:06:30.946Z,33.02
2019-03-22T08:10:34.666Z,35.55
2019-03-22T08:14:38.422Z,29.12
2019-03-22T08:18:42.298Z,35.50
2019-03-22T08:22:46.011Z,36.15
2019-03-22T08:26:49.623Z,37.25
2019-03-22T08:30:53.243Z,31.55
2019-03-22T08:34:59.627Z,34.60
2019-03-22T08:39:03.648Z,32.45
2019-03-22T08:43:07.258Z,37.38
2019-03-22T08:47:10.970Z,34.80
2019-03-22T08:51:14.587Z,37.50
2019-03-22T08:55:18.428Z,40.38
2019-03-22T08:59:22.117Z,39.35
2019-03-22T09:03:25.879Z,40.00
2019-03-22T09:07:29.490Z,41.15
2019-03-22T09:11:33.068Z,38.42
2019-03-22T09:15:41.039Z,41.80
2019-03-22T09:19:46.175Z,39.83
2019-03-22T09:23:51.964Z,41.70
2019-03-22T09:27:59.210Z,41.45
2019-03-22T09:32:02.907Z,42.43
2019-03-22T09:36:06.546Z,45.43
2019-03-22T09:40:10.530Z,45.20
2019-03-22T09:44:18.719Z,42.20
2019-03-22T09:48:23.366Z,42.33
2019-03-22T09:52:33.788Z,45.20
2019-03-22T09:56:47.208Z,45.07
2019-03-22T10:00:50.809Z,49.23
2019-03-22T10:04:54.459Z,49.00
2019-03-22T10:08:58.084Z,50.60
2019-03-22T10:13:01.824Z,50.67
2019-03-22T10:17:05.500Z,50.85
2019-03-22T10:21:21.524Z,50.63
2019-03-22T10:25:14.866Z,52.93
2019-03-22T10:29:18.443Z,43.00
2019-03-22T10:33:23.305Z,46.70
2019-03-22T10:37:27.101Z,49.53
2019-03-22T10:41:31.811Z,48.28
2019-03-22T10:45:35.564Z,50.58
2019-03-22T10:49:41.812Z,52.85
2019-03-22T10:53:44.540Z,46.20
2019-03-22T10:57:48.213Z,54.60
2019-03-22T11:02:02.598Z,52.13
2019-03-22T11:05:57.165Z,53.80
2019-03-22T11:10:00.828Z,45.35
2019-03-22T11:14:04.596Z,50.00
2019-03-22T11:18:08.318Z,54.35
2019-03-22T11:22:11.935Z,55.80
2019-03-22T11:26:15.543Z,55.33
2019-03-22T11:30:19.581Z,47.78
2019-03-22T11:34:23.284Z,58.10
2019-03-22T11:38:26.999Z,63.42
2019-03-22T11:42:30.615Z,54.75
2019-03-22T11:46:34.433Z,56.85
2019-03-22T11:50:38.007Z,58.80
2019-03-22T11:54:41.664Z,63.40
2019-03-22T11:58:45.377Z,63.17
2019-03-22T12:02:49.196Z,62.03
2019-03-22T12:06:52.812Z,60.45
2019-03-22T12:10:56.424Z,65.17
2019-03-22T12:15:00.075Z,65.50
2019-03-22T12:19:03.654Z,56.85
2019-03-22T12:23:07.578Z,64.53
2019-03-22T12:27:11.192Z,62.73
2019-03-22T12:31:14.847Z,46.48
2019-03-22T12:35:18.930Z,62.00
2019-03-22T12:39:22.647Z,56.18
2019-03-22T12:43:26.258Z,63.10
2019-03-22T12:47:30.519Z,65.05
2019-03-22T12:51:42.826Z,65.35
2019-03-22T12:55:54.112Z,57.15
2019-03-22T13:00:02.763Z,58.30
2019-03-22T13:04:07.696Z,58.50
2019-03-22T13:08:11.414Z,59.20
2019-03-22T13:12:16.139Z,54.10
2019-03-22T13:16:19.711Z,58.58
2019-03-22T13:20:23.572Z,49.13
2019-03-22T13:24:27.186Z,58.87
2019-03-22T13:28:30.839Z,55.30
2019-03-22T13:32:34.627Z,47.20
2019-03-22T13:36:38.237Z,50.88
2019-03-22T13:40:41.855Z,54.88
2019-03-22T13:44:45.461Z,54.95
2019-03-22T13:48:49.081Z,47.23
2019-03-22T13:52:52.689Z,50.33
2019-03-22T13:56:56.305Z,47.53
2019-03-22T14:01:00.230Z,48.78
2019-03-22T14:05:05.171Z,52.88
2019-03-22T14:09:09.910Z,47.23
2019-03-22T14:13:13.490Z,48.25
2019-03-22T14:17:17.163Z,51.58
2019-03-22T14:21:20.855Z,53.68
2019-03-22T14:25:24.577Z,49.25
2019-03-22T14:29:28.190Z,50.67
2019-03-22T14:33:31.900Z,44.63
2019-03-22T14:37:35.619Z,51.02
2019-03-22T14:41:39.251Z,53.52
2019-03-22T14:45:42.949Z,51.20
2019-03-22T14:49:46.682Z,46.42
2019-03-22T14:53:50.280Z,42.67
2019-03-22T14:57:53.940Z,47.67
2019-03-22T15:02:17.143Z,38.67
2019-03-22T15:06:21.498Z,51.20
2019-03-22T15:10:25.232Z,46.70
2019-03-22T15:14:39.377Z,52.55
2019-03-22T15:18:50.169Z,50.38
2019-03-22T15:22:58.178Z,49.17
2019-03-22T15:27:09.367Z,47.15
2019-03-22T15:31:23.848Z,45.80
2019-03-22T15:35:45.812Z,46.83
2019-03-22T15:39:53.908Z,46.80
2019-03-22T15:43:57.570Z,48.98
2019-03-22T15:48:01.343Z,42.08
2019-03-22T15:52:05.117Z,47.43
2019-03-22T15:56:08.671Z,53.02
2019-03-22T16:00:17.483Z,51.23
2019-03-22T16:04:21.128Z,53.44
2019-03-22T16:08:24.753Z,48.00
2019-03-22T16:12:28.347Z,50.10
2019-03-22T16:16:32.063Z,54.48
2019-03-22T16:20:35.678Z,46.55
2019-03-22T16:24:39.499Z,45.00
2019-03-22T16:28:43.122Z,51.73
2019-03-22T16:32:46.831Z,51.20
2019-03-22T16:36:50.399Z,49.42
2019-03-22T16:40:54.059Z,53.08
2019-03-22T16:44:57.670Z,48.98
2019-03-22T16:49:01.284Z,48.00
2019-03-22T16:53:05.631Z,51.05
2019-03-22T16:57:09.230Z,50.95
2019-03-22T17:01:12.952Z,52.62
2019-03-22T17:05:16.667Z,54.00
2019-03-22T17:09:20.483Z,50.47
2019-03-22T17:13:24.051Z,47.17
2019-03-22T17:17:40.198Z,48.80
2019-03-22T17:21:44.330Z,52.05
2019-03-22T17:25:47.943Z,50.40
2019-03-22T17:29:52.172Z,51.13
2019-03-22T17:33:55.732Z,50.85
2019-03-22T17:37:59.506Z,55.30
2019-03-22T17:42:03.324Z,57.85
2019-03-22T17:50:17.782Z,56.40
2019-03-22T17:54:21.338Z,58.80
2019-03-22T18:12:25.212Z,58.05
2019-03-22T18:16:28.780Z,59.70
2019-03-22T18:20:32.432Z,60.60
2019-03-22T18:24:36.998Z,56.73
2019-03-22T18:28:40.769Z,60.75
2019-03-22T18:32:45.130Z,60.40
2019-03-22T18:36:48.905Z,58.73
2019-03-22T18:40:52.579Z,61.00
2019-03-22T18:44:56.498Z,55.03
2019-03-22T18:49:00.462Z,58.78
2019-03-22T18:53:03.986Z,63.52
2019-03-22T18:57:08.076Z,64.17
2019-03-22T19:01:11.892Z,55.98
2019-03-22T19:05:16.673Z,60.55
2019-03-22T19:09:20.451Z,60.55
2019-03-22T19:13:30.671Z,63.35
2019-03-22T19:17:29.479Z,64.30
2019-03-22T19:21:33.184Z,63.38
2019-03-22T19:25:37.122Z,62.67
2019-03-22T19:29:40.904Z,65.05
2019-03-22T19:33:44.592Z,60.92
2019-03-22T19:37:48.368Z,63.28
2019-03-22T19:41:52.058Z,63.20
2019-03-22T19:45:55.710Z,63.78
2019-03-22T19:49:59.366Z,61.53
2019-03-22T19:54:03.153Z,63.08
2019-03-22T19:58:07.026Z,64.27
2019-03-22T20:02:10.875Z,59.85
2019-03-22T20:06:14.781Z,66.90
2019-03-22T20:10:18.972Z,63.63
2019-03-22T20:14:23.038Z,62.33
2019-03-22T20:18:26.644Z,70.75
2019-03-22T20:22:30.127Z,65.22
2019-03-22T20:26:33.704Z,62.93
2019-03-22T20:30:37.331Z,62.48
2019-03-22T20:34:40.856Z,59.60
2019-03-22T20:38:44.391Z,67.65
2019-03-22T20:42:48.065Z,66.07
2019-03-22T20:46:51.579Z,60.35
2019-03-22T20:50:55.182Z,64.03
2019-03-22T20:54:58.859Z,62.83
2019-03-22T20:59:02.441Z,68.85
2019-03-22T21:03:06.313Z,64.77
2019-03-22T21:12:03.892Z,65.52
2019-03-22T21:16:12.400Z,68.42
2019-03-22T21:20:50.985Z,66.82
2019-03-22T21:24:54.597Z,66.97
2019-03-22T21:28:58.094Z,71.80
2019-03-22T21:33:01.602Z,67.75
2019-03-22T21:37:06.089Z,66.53
2019-03-22T21:41:09.613Z,68.90
2019-03-22T21:45:13.466Z,68.23
2019-03-22T21:49:17.014Z,67.37
2019-03-22T21:53:20.509Z,69.72
2019-03-22T21:57:24.977Z,68.00
2019-03-22T22:01:28.493Z,68.92
2019-03-22T22:05:32.017Z,67.60
2019-03-22T22:09:35.529Z,68.52
2019-03-22T22:13:39.023Z,69.97
2019-03-22T22:17:42.932Z,70.78
2019-03-22T22:21:46.447Z,73.30
2019-03-22T22:25:51.534Z,73.83
2019-03-22T22:34:58.926Z,69.03
2019-03-22T22:39:02.404Z,72.20
2019-03-22T22:43:05.936Z,71.60
2019-03-22T22:47:09.458Z,67.12
2019-03-22T22:51:12.978Z,69.62
2019-03-22T22:55:16.488Z,70.15
2019-03-22T22:59:19.982Z,68.87
2019-03-22T23:03:23.533Z,65.55
2019-03-22T23:07:27.104Z,67.37
2019-03-22T23:11:30.567Z,69.75
2019-03-22T23:15:34.090Z,71.53
2019-03-22T23:19:37.575Z,72.03
2019-03-22T23:23:41.088Z,70.08
2019-03-22T23:27:44.657Z,68.65
2019-03-22T23:31:49.268Z,71.05
2019-03-22T23:35:53.001Z,72.90
2019-03-22T23:39:56.501Z,69.75
2019-03-22T23:44:02.158Z,68.65
2019-03-22T23:48:05.686Z,69.03
2019-03-22T23:52:09.233Z,71.62
2019-03-22T23:56:13.663Z,75.00
